Time;durP1;ratioP1;P1;durP2;ratioP2;P2;SDS_P1;SDS_P2;PMS_P1;PMS_P2;Temp;Humidity;BMP_temperature;BMP_pressure;BME280_temperature;BME280_humidity;BME280_pressure;Samples;Min_cycle;Max_cycle;Signal;HPM_P1;HPM_P2
2022/12/19 00:00:21;;;;;;;43.92;25.52;;;4.60;93.20;;;;;;5107902;28;20135;-55
2022/12/19 00:02:46;;;;;;;41.85;25.58;;;4.60;93.20;;;;;;5125441;28;20030;-55
2022/12/19 00:05:12;;;;;;;45.88;26.23;;;4.60;93.20;;;;;;5125793;28;20028;-56
2022/12/19 00:07:38;;;;;;;43.78;25.67;;;4.50;93.20;;;;;;5107359;28;20023;-55
2022/12/19 00:10:04;;;;;;;43.03;25.23;;;4.50;93.20;;;;;;5107150;28;20088;-55
2022/12/19 00:12:30;;;;;;;45.25;25.50;;;4.50;93.20;;;;;;5107093;28;20096;-55
2022/12/19 00:14:55;;;;;;;41.58;25.40;;;4.50;93.20;;;;;;5107213;28;20023;-55
2022/12/19 00:17:21;;;;;;;46.40;25.17;;;4.60;93.30;;;;;;5125240;28;20031;-55
2022/12/19 00:19:47;;;;;;;46.53;25.98;;;4.50;93.20;;;;;;5106920;28;20020;-55
2022/12/19 00:22:12;;;;;;;47.38;25.25;;;4.50;93.20;;;;;;5125484;28;20028;-55
2022/12/19 00:24:38;;;;;;;41.47;25.75;;;4.50;93.20;;;;;;5125328;28;20054;-55
2022/12/19 00:27:03;;;;;;;41.30;25.15;;;4.50;93.20;;;;;;5106955;28;20031;-55
2022/12/19 00:29:29;;;;;;;42.10;25.27;;;4.50;93.20;;;;;;5107169;28;20359;-55
2022/12/19 00:31:54;;;;;;;40.72;25.23;;;4.50;93.20;;;;;;5125552;28;20028;-55
2022/12/19 00:34:20;;;;;;;43.63;24.83;;;4.50;93.20;;;;;;5107139;28;20065;-55
2022/12/19 00:36:45;;;;;;;42.40;25.70;;;4.50;93.20;;;;;;5107844;28;20097;-55
2022/12/19 00:39:11;;;;;;;42.97;26.05;;;4.50;93.20;;;;;;5111372;28;20061;-55
2022/12/19 00:41:38;;;;;;;43.78;25.95;;;4.50;93.20;;;;;;5111131;28;20032;-55
2022/12/19 00:44:05;;;;;;;39.70;25.50;;;4.50;93.20;;;;;;5110999;28;20043;-55
2022/12/19 00:46:31;;;;;;;42.42;25.20;;;4.50;93.20;;;;;;5110893;28;20040;-55
2022/12/19 00:48:57;;;;;;;39.45;24.27;;;4.50;93.20;;;;;;5111139;28;20028;-55
2022/12/19 00:51:26;;;;;;;46.42;25.35;;;4.50;93.20;;;;;;5110566;28;20449;-55
2022/12/19 00:53:53;;;;;;;43.97;24.45;;;4.60;93.20;;;;;;5110621;28;20031;-56
2022/12/19 00:56:20;;;;;;;40.53;24.55;;;4.50;93.20;;;;;;5110711;28;20467;-55
2022/12/19 00:58:46;;;;;;;37.92;23.77;;;4.50;93.20;;;;;;5110661;28;20024;-56
2022/12/19 01:01:19;;;;;;;43.08;25.20;;;4.50;93.20;;;;;;5110732;28;20454;-55
2022/12/19 01:03:45;;;;;;;39.25;25.30;;;4.50;93.20;;;;;;5093714;28;20031;-55
2022/12/19 01:06:10;;;;;;;38.97;25.42;;;4.50;93.20;;;;;;5110569;28;20031;-55
2022/12/19 01:08:36;;;;;;;36.20;23.98;;;4.50;93.20;;;;;;5110760;28;20465;-55
2022/12/19 01:11:02;;;;;;;39.08;24.58;;;4.50;93.20;;;;;;5110347;28;20512;-55
2022/12/19 01:13:28;;;;;;;39.67;25.27;;;4.60;93.20;;;;;;5129011;28;20349;-56
2022/12/19 01:15:54;;;;;;;41.25;25.08;;;4.60;93.20;;;;;;5128906;28;20035;-55
2022/12/19 01:18:20;;;;;;;40.25;25.20;;;4.50;93.20;;;;;;5128648;28;20094;-55
2022/12/19 01:20:46;;;;;;;38.80;24.75;;;4.50;93.20;;;;;;5128982;28;20047;-55
2022/12/19 01:23:12;;;;;;;41.88;25.02;;;4.50;93.20;;;;;;5093131;28;20023;-55
2022/12/19 01:25:37;;;;;;;42.00;25.08;;;4.60;93.20;;;;;;5128533;28;20031;-55
2022/12/19 01:28:04;;;;;;;50.03;26.75;;;4.50;93.20;;;;;;5128802;28;20026;-55
2022/12/19 01:30:30;;;;;;;37.65;24.08;;;4.50;93.20;;;;;;5110148;28;20028;-55
2022/12/19 01:32:55;;;;;;;41.35;25.00;;;4.50;93.20;;;;;;5110424;28;20327;-55
2022/12/19 01:35:21;;;;;;;40.58;25.30;;;4.60;93.30;;;;;;5110170;28;20103;-56
2022/12/19 01:37:46;;;;;;;36.53;24.10;;;4.50;93.20;;;;;;5110279;28;20027;-56
2022/12/19 01:40:12;;;;;;;39.45;24.35;;;4.50;93.20;;;;;;5110068;28;20422;-56
2022/12/19 01:42:38;;;;;;;39.70;25.85;;;4.50;93.20;;;;;;5109898;28;20038;-55
2022/12/19 01:45:04;;;;;;;36.25;24.92;;;4.60;93.20;;;;;;5109888;28;20051;-56
2022/12/19 01:47:30;;;;;;;43.42;25.15;;;4.60;93.20;;;;;;5109876;28;20083;-55
2022/12/19 01:49:56;;;;;;;40.53;24.17;;;4.50;93.20;;;;;;5109582;28;20028;-55
2022/12/19 01:52:21;;;;;;;39.85;25.23;;;4.50;93.20;;;;;;5109617;28;20064;-55
2022/12/19 01:54:47;;;;;;;37.83;24.77;;;4.60;93.20;;;;;;5109836;28;20076;-55
2022/12/19 01:57:13;;;;;;;36.22;24.55;;;4.50;93.20;;;;;;5109417;28;20053;-55
2022/12/19 01:59:43;;;;;;;39.60;25.63;;;4.50;93.20;;;;;;5109739;28;20385;-56
2022/12/19 02:02:14;;;;;;;40.00;25.23;;;4.50;93.20;;;;;;5109445;28;20033;-55
2022/12/19 02:04:42;;;;;;;36.42;24.77;;;4.50;93.20;;;;;;5109506;28;20015;-55
2022/12/19 02:07:08;;;;;;;34.70;23.48;;;4.50;93.20;;;;;;5092637;28;20039;-55
2022/12/19 02:09:34;;;;;;;40.08;25.00;;;4.50;93.30;;;;;;5109537;28;20020;-55
2022/12/19 02:11:59;;;;;;;37.20;24.83;;;4.50;93.30;;;;;;5109555;28;20020;-55
2022/12/19 02:14:25;;;;;;;41.63;24.83;;;4.50;93.30;;;;;;5109150;28;20085;-55
2022/12/19 02:17:16;;;;;;;39.25;23.65;;;4.50;93.30;;;;;;5092398;28;20047;-55
2022/12/19 02:19:59;;;;;;;43.92;25.20;;;4.50;93.30;;;;;;5092302;28;20030;-56
2022/12/19 02:22:37;;;;;;;40.03;25.08;;;4.50;93.30;;;;;;5127789;28;20088;-55
2022/12/19 02:25:20;;;;;;;37.42;25.35;;;4.50;93.30;;;;;;5127581;28;20030;-55
2022/12/19 02:28:12;;;;;;;38.22;25.65;;;4.50;93.30;;;;;;5127639;28;20083;-56
2022/12/19 02:31:00;;;;;;;36.30;24.98;;;4.50;93.60;;;;;;5101748;28;20066;-55
2022/12/19 02:33:38;;;;;;;38.03;25.30;;;4.50;93.30;;;;;;5109069;28;20032;-55
2022/12/19 02:36:15;;;;;;;36.88;25.02;;;4.50;93.40;;;;;;5109582;28;20116;-55
2022/12/19 02:38:43;;;;;;;36.83;23.77;;;4.50;93.40;;;;;;5092055;28;20030;-55
2022/12/19 02:41:24;;;;;;;39.92;25.10;;;4.50;93.40;;;;;;5108751;28;20028;-55
2022/12/19 02:43:50;;;;;;;37.15;24.35;;;4.50;93.40;;;;;;5109525;28;20030;-55
2022/12/19 02:46:16;;;;;;;38.17;24.05;;;4.50;93.40;;;;;;5108644;28;20067;-55
2022/12/19 02:48:41;;;;;;;37.22;25.63;;;4.50;93.40;;;;;;5108996;28;20582;-55
2022/12/19 02:51:07;;;;;;;37.63;25.00;;;4.50;93.40;;;;;;5126948;28;20031;-55
2022/12/19 02:53:33;;;;;;;38.63;25.35;;;4.50;93.40;;;;;;5127153;28;20058;-55
2022/12/19 02:56:12;;;;;;;35.42;23.80;;;4.50;93.40;;;;;;5108466;28;20444;-55
2022/12/19 02:58:48;;;;;;;37.25;25.15;;;4.50;93.40;;;;;;5108560;28;20036;-55
2022/12/19 03:01:20;;;;;;;38.60;23.70;;;4.50;93.40;;;;;;5108202;28;20106;-55
2022/12/19 03:03:57;;;;;;;35.95;23.60;;;4.50;93.40;;;;;;5126971;28;20039;-55
2022/12/19 03:06:25;;;;;;;37.28;24.17;;;4.50;93.50;;;;;;5108434;28;20036;-55
2022/12/19 03:09:15;;;;;;;38.80;25.42;;;4.50;93.50;;;;;;5108468;28;20032;-56
2022/12/19 03:11:41;;;;;;;39.60;24.85;;;4.50;93.50;;;;;;5108508;28;20357;-55
2022/12/19 03:14:17;;;;;;;35.15;24.30;;;4.50;93.40;;;;;;5108383;28;20031;-55
2022/12/19 03:16:42;;;;;;;36.03;24.85;;;4.50;93.50;;;;;;5108047;28;20031;-53
2022/12/19 03:19:09;;;;;;;34.65;24.30;;;4.50;93.50;;;;;;5108094;28;20442;-55
2022/12/19 03:21:39;;;;;;;34.97;22.88;;;4.50;93.50;;;;;;5107916;28;20027;-55
2022/12/19 03:24:05;;;;;;;35.40;23.98;;;4.50;93.50;;;;;;5107957;28;20034;-55
2022/12/19 03:26:35;;;;;;;35.38;23.88;;;4.60;93.50;;;;;;5107841;28;20062;-56
2022/12/19 03:29:09;;;;;;;35.22;23.02;;;4.50;93.50;;;;;;5108035;28;20061;-55
2022/12/19 03:31:35;;;;;;;40.60;24.70;;;4.50;93.50;;;;;;5107899;28;20072;-55
2022/12/19 03:34:07;;;;;;;33.90;24.35;;;4.50;93.50;;;;;;5107979;28;20133;-55
2022/12/19 03:36:36;;;;;;;36.00;24.15;;;4.50;93.50;;;;;;5107775;28;20028;-55
2022/12/19 03:39:02;;;;;;;34.85;22.88;;;4.50;93.50;;;;;;5107889;28;20028;-55
2022/12/19 03:44:12;;;;;;;33.30;23.42;;;4.50;93.50;;;;;;5110516;28;20153;-55
2022/12/19 03:46:40;;;;;;;35.58;23.63;;;4.50;93.50;;;;;;5107810;28;20165;-56
2022/12/19 03:49:06;;;;;;;35.50;23.90;;;4.50;93.60;;;;;;5107728;28;20031;-55
2022/12/19 03:51:57;;;;;;;37.05;22.73;;;4.50;93.60;;;;;;5107522;28;20504;-55
2022/12/19 03:54:30;;;;;;;34.50;23.58;;;4.50;93.60;;;;;;5107557;28;20042;-55
2022/12/19 03:57:04;;;;;;;33.20;22.75;;;4.50;93.60;;;;;;5107541;28;20038;-55
2022/12/19 03:59:51;;;;;;;35.63;23.95;;;4.50;93.50;;;;;;5107637;28;20020;-55
2022/12/19 04:02:18;;;;;;;39.20;24.65;;;4.50;93.60;;;;;;5108017;28;20042;-55
2022/12/19 04:04:46;;;;;;;35.38;24.42;;;4.50;93.60;;;;;;5109060;28;20027;-55
2022/12/19 04:07:11;;;;;;;39.08;25.88;;;4.50;93.60;;;;;;5108990;28;20073;-55
2022/12/19 04:09:37;;;;;;;35.08;24.77;;;4.50;93.70;;;;;;5107959;28;20103;-55
2022/12/19 04:12:05;;;;;;;37.75;24.88;;;4.50;93.60;;;;;;5107500;28;20034;-55
2022/12/19 04:14:32;;;;;;;40.30;25.60;;;4.50;93.60;;;;;;5108422;28;20031;-55
2022/12/19 04:17:31;;;;;;;34.50;24.63;;;4.50;93.70;;;;;;5107441;28;20036;-55
2022/12/19 04:20:01;;;;;;;37.67;25.58;;;4.60;93.70;;;;;;5107744;28;20076;-55
2022/12/19 04:22:49;;;;;;;34.05;23.90;;;4.50;93.70;;;;;;5107750;28;20027;-55
2022/12/19 04:25:18;;;;;;;37.80;25.80;;;4.50;94.00;;;;;;5089999;28;20026;-55
2022/12/19 04:27:49;;;;;;;38.50;26.50;;;4.50;93.70;;;;;;5107130;28;20028;-55
2022/12/19 04:30:16;;;;;;;37.33;24.15;;;4.50;93.70;;;;;;5106979;28;20058;-55
2022/12/19 04:32:45;;;;;;;38.38;25.17;;;4.50;93.80;;;;;;5107169;28;20027;-55
2022/12/19 04:35:11;;;;;;;40.58;25.35;;;4.50;93.80;;;;;;5107038;28;20046;-55
2022/12/19 04:37:36;;;;;;;35.85;24.95;;;4.50;93.80;;;;;;5107050;28;20079;-55
2022/12/19 04:40:02;;;;;;;36.38;24.77;;;4.50;93.80;;;;;;5106936;28;20043;-55
2022/12/19 04:42:28;;;;;;;37.97;24.80;;;4.50;93.80;;;;;;5106778;28;20030;-55
2022/12/19 04:44:54;;;;;;;38.58;25.98;;;4.50;93.90;;;;;;5125317;28;20024;-55
2022/12/19 04:47:19;;;;;;;36.47;24.92;;;4.50;93.90;;;;;;5125432;28;20024;-55
2022/12/19 04:49:45;;;;;;;37.75;25.20;;;4.60;93.90;;;;;;5106816;28;20046;-54
2022/12/19 04:52:10;;;;;;;37.70;25.75;;;4.60;94.00;;;;;;5106786;28;20043;-55
2022/12/19 04:54:36;;;;;;;36.20;24.85;;;4.50;94.00;;;;;;5107014;28;20022;-55
2022/12/19 04:57:01;;;;;;;35.53;24.67;;;4.60;94.00;;;;;;5106920;28;20084;-56
2022/12/19 04:59:27;;;;;;;40.60;25.58;;;4.50;94.10;;;;;;5107155;28;20026;-55
2022/12/19 05:01:52;;;;;;;35.47;24.70;;;4.60;94.20;;;;;;5106615;28;20035;-55
2022/12/19 05:04:18;;;;;;;37.42;25.30;;;4.60;94.20;;;;;;5106895;28;20035;-55
2022/12/19 05:06:43;;;;;;;35.20;25.02;;;4.60;94.20;;;;;;5106640;28;20044;-55
2022/12/19 05:09:09;;;;;;;37.75;24.42;;;4.60;94.20;;;;;;5106701;28;20138;-55
2022/12/19 05:11:35;;;;;;;34.65;24.90;;;4.60;94.10;;;;;;5106763;28;20035;-55
2022/12/19 05:14:01;;;;;;;39.67;26.02;;;4.60;94.20;;;;;;5124989;28;20023;-55
2022/12/19 05:16:26;;;;;;;36.50;25.20;;;4.60;94.40;;;;;;5106569;28;20035;-55
2022/12/19 05:18:52;;;;;;;35.63;25.15;;;4.60;94.50;;;;;;5106517;28;20098;-55
2022/12/19 05:21:18;;;;;;;37.75;24.50;;;4.60;94.50;;;;;;5124756;28;20074;-55
2022/12/19 05:23:43;;;;;;;36.35;25.13;;;4.60;94.50;;;;;;5127404;28;20326;-55
2022/12/19 05:26:09;;;;;;;38.08;26.23;;;4.60;94.60;;;;;;5128692;28;20461;-55
2022/12/19 05:28:35;;;;;;;36.60;26.20;;;4.60;94.60;;;;;;5110217;28;20024;-55
2022/12/19 05:31:11;;;;;;;41.55;26.75;;;4.60;94.60;;;;;;5128581;28;20034;-55
2022/12/19 05:33:36;;;;;;;37.00;26.02;;;4.60;94.60;;;;;;5110091;28;20079;-55
2022/12/19 05:36:02;;;;;;;34.20;25.15;;;4.60;94.70;;;;;;5128369;28;20027;-55
2022/12/19 05:38:28;;;;;;;36.83;26.02;;;4.60;94.70;;;;;;5092936;28;20023;-55
2022/12/19 05:40:53;;;;;;;38.50;25.48;;;4.60;94.80;;;;;;5109807;28;20039;-55
2022/12/19 05:43:19;;;;;;;33.30;24.45;;;4.60;94.80;;;;;;5109782;28;20027;-55
2022/12/19 05:45:45;;;;;;;38.67;26.75;;;4.60;94.80;;;;;;5109790;28;20070;-55
2022/12/19 05:48:10;;;;;;;36.15;25.10;;;4.60;94.80;;;;;;5128057;28;20054;-55
2022/12/19 05:50:36;;;;;;;36.42;24.83;;;4.60;94.80;;;;;;5128124;28;20054;-55
2022/12/19 05:53:01;;;;;;;35.25;23.98;;;4.60;94.80;;;;;;5109245;28;20028;-55
2022/12/19 05:55:27;;;;;;;37.05;24.05;;;4.60;94.80;;;;;;5127983;28;20103;-55
2022/12/19 05:57:52;;;;;;;36.60;26.33;;;4.60;94.80;;;;;;5109769;28;20023;-55
2022/12/19 06:00:18;;;;;;;37.30;24.17;;;4.60;94.80;;;;;;5092380;28;20035;-55
2022/12/19 06:02:47;;;;;;;38.67;25.45;;;4.60;94.80;;;;;;5109785;28;20023;-55
2022/12/19 06:05:12;;;;;;;37.00;25.42;;;4.60;95.10;;;;;;5109439;28;20055;-55
2022/12/19 06:07:38;;;;;;;34.20;24.20;;;4.60;94.80;;;;;;5109556;28;20069;-55
2022/12/19 06:10:04;;;;;;;35.67;25.38;;;4.50;94.80;;;;;;5109422;28;20044;-55
2022/12/19 06:12:30;;;;;;;39.38;27.08;;;4.50;94.80;;;;;;5092196;28;20073;-55
2022/12/19 06:14:56;;;;;;;42.08;27.20;;;4.50;94.80;;;;;;5109644;28;20020;-55
2022/12/19 06:17:21;;;;;;;36.53;26.15;;;4.50;94.80;;;;;;5127675;28;20354;-55
2022/12/19 06:19:47;;;;;;;40.15;28.00;;;4.50;94.70;;;;;;5109066;28;20020;-55
2022/12/19 06:22:12;;;;;;;36.55;26.15;;;4.50;94.70;;;;;;5109017;28;20069;-55
2022/12/19 06:24:38;;;;;;;35.40;25.48;;;4.50;94.70;;;;;;5109092;28;20107;-55
2022/12/19 06:27:03;;;;;;;35.75;26.35;;;4.50;94.70;;;;;;5109267;28;20309;-55
2022/12/19 06:29:29;;;;;;;37.60;26.73;;;4.50;94.70;;;;;;5109772;28;20030;-55
2022/12/19 06:31:54;;;;;;;39.42;26.75;;;4.50;94.70;;;;;;5109466;28;20063;-54
2022/12/19 06:34:21;;;;;;;38.20;26.63;;;4.50;94.70;;;;;;5108729;28;20027;-55
2022/12/19 06:36:46;;;;;;;35.38;25.60;;;4.50;94.70;;;;;;5109859;28;20027;-55
2022/12/19 06:39:12;;;;;;;35.08;25.23;;;4.50;94.70;;;;;;5128435;28;20020;-55
2022/12/19 06:44:22;;;;;;;37.17;26.63;;;4.50;94.80;;;;;;5111372;28;20049;-55
2022/12/19 06:46:47;;;;;;;37.00;26.23;;;4.50;94.70;;;;;;5126837;28;20190;-55
2022/12/19 06:49:13;;;;;;;35.30;26.10;;;4.50;94.80;;;;;;5091558;28;20034;-55
2022/12/19 06:51:39;;;;;;;36.00;26.02;;;4.50;94.80;;;;;;5108386;28;20054;-55
2022/12/19 06:54:04;;;;;;;34.72;24.83;;;4.50;94.70;;;;;;5108380;28;20118;-55
2022/12/19 06:56:34;;;;;;;37.88;27.33;;;4.50;94.80;;;;;;5108269;28;20023;-55
2022/12/19 06:59:00;;;;;;;37.97;27.60;;;4.50;94.80;;;;;;5108542;28;20034;-55
2022/12/19 07:01:38;;;;;;;37.85;25.15;;;4.50;94.80;;;;;;5108215;28;20111;-55
2022/12/19 07:04:04;;;;;;;35.65;24.70;;;4.50;94.80;;;;;;5109240;28;20465;-54
2022/12/19 07:06:30;;;;;;;34.83;24.58;;;4.50;94.80;;;;;;5091115;28;20081;-55
2022/12/19 07:08:55;;;;;;;35.55;24.25;;;4.50;94.80;;;;;;5126416;28;20051;-55
2022/12/19 07:11:21;;;;;;;34.25;25.27;;;4.50;94.80;;;;;;5108037;28;20036;-56
2022/12/19 07:13:46;;;;;;;33.95;25.05;;;4.50;94.80;;;;;;5126296;28;20466;-55
2022/12/19 07:16:12;;;;;;;34.80;23.92;;;4.50;94.80;;;;;;5108016;28;20038;-55
2022/12/19 07:18:38;;;;;;;34.17;24.17;;;4.50;94.80;;;;;;5107741;28;20027;-55
2022/12/19 07:21:03;;;;;;;35.20;25.38;;;4.50;94.80;;;;;;5107704;28;20034;-55
2022/12/19 07:23:29;;;;;;;38.83;26.20;;;4.50;94.80;;;;;;5107951;28;20057;-55
2022/12/19 07:25:54;;;;;;;41.70;27.02;;;4.50;94.80;;;;;;5107705;28;20036;-55
2022/12/19 07:28:20;;;;;;;34.33;24.90;;;4.50;94.80;;;;;;5108174;28;20086;-55
2022/12/19 07:30:45;;;;;;;35.05;24.70;;;4.50;94.90;;;;;;5107629;28;20031;-55
2022/12/19 07:33:11;;;;;;;33.92;25.15;;;4.50;94.90;;;;;;5107539;28;20051;-55
2022/12/19 07:35:37;;;;;;;39.22;26.65;;;4.50;94.90;;;;;;5107507;28;20046;-55
2022/12/19 07:38:03;;;;;;;37.70;25.42;;;4.50;94.90;;;;;;5125735;28;20039;-55
2022/12/19 07:40:32;;;;;;;34.90;25.08;;;4.50;95.00;;;;;;5107562;28;20019;-55
2022/12/19 07:43:02;;;;;;;195.77;37.35;;;4.50;95.10;;;;;;5125825;28;20033;-54
2022/12/19 07:45:28;;;;;;;58.53;27.45;;;4.60;95.10;;;;;;5107521;28;20031;-55
2022/12/19 07:47:53;;;;;;;35.67;24.52;;;4.60;95.10;;;;;;5125655;28;20027;-55
2022/12/19 07:50:19;;;;;;;48.15;26.27;;;4.60;95.20;;;;;;5107372;28;20044;-55
2022/12/19 07:52:44;;;;;;;41.00;26.15;;;4.60;95.10;;;;;;5107095;28;20096;-55
2022/12/19 07:55:10;;;;;;;41.33;26.42;;;4.60;95.10;;;;;;5090614;28;20087;-55
2022/12/19 07:57:35;;;;;;;81.35;29.23;;;4.60;95.10;;;;;;5125806;28;20039;-55
2022/12/19 08:00:02;;;;;;;46.65;25.50;;;4.60;95.10;;;;;;5106695;28;20019;-55
2022/12/19 08:02:27;;;;;;;47.55;25.75;;;4.60;95.10;;;;;;5124415;28;20038;-55
2022/12/19 08:04:53;;;;;;;43.67;25.55;;;4.60;95.20;;;;;;5106884;28;20020;-55
2022/12/19 08:07:18;;;;;;;41.10;25.25;;;4.60;95.10;;;;;;5107012;28;20442;-55
2022/12/19 08:09:44;;;;;;;41.30;26.80;;;4.60;95.10;;;;;;5107274;28;20381;-55
2022/12/19 08:12:10;;;;;;;41.40;26.15;;;4.60;95.10;;;;;;5125660;28;20445;-55
2022/12/19 08:14:35;;;;;;;41.92;26.60;;;4.60;95.10;;;;;;5106778;28;20028;-55
2022/12/19 08:17:01;;;;;;;38.58;25.10;;;4.60;95.20;;;;;;5107005;28;20028;-55
2022/12/19 08:19:26;;;;;;;39.17;25.70;;;4.60;95.20;;;;;;5125354;28;20034;-55
2022/12/19 08:21:52;;;;;;;44.58;25.92;;;4.60;95.30;;;;;;5106085;28;20032;-55
2022/12/19 08:24:17;;;;;;;63.42;27.00;;;4.60;95.30;;;;;;5124249;28;20457;-55
2022/12/19 08:26:43;;;;;;;41.28;25.02;;;4.60;95.30;;;;;;5124323;28;20371;-55
2022/12/19 08:29:09;;;;;;;41.47;25.23;;;4.60;95.30;;;;;;5105549;28;20342;-55
2022/12/19 08:31:34;;;;;;;48.28;25.90;;;4.70;95.30;;;;;;5088680;28;20104;-55
2022/12/19 08:34:00;;;;;;;43.70;25.45;;;4.70;95.30;;;;;;5105944;28;20088;-55
2022/12/19 08:36:25;;;;;;;43.00;25.83;;;4.70;95.20;;;;;;5106840;28;20051;-55
2022/12/19 08:38:51;;;;;;;43.80;26.30;;;4.70;95.20;;;;;;5107254;28;20027;-55
2022/12/19 08:41:17;;;;;;;43.47;25.45;;;4.70;95.20;;;;;;5106914;28;20028;-55
2022/12/19 08:43:46;;;;;;;43.45;26.00;;;4.60;95.10;;;;;;5106450;28;20361;-55
2022/12/19 08:46:12;;;;;;;50.90;27.70;;;4.70;95.20;;;;;;5106537;28;20040;-55
2022/12/19 08:48:38;;;;;;;44.28;26.13;;;4.70;95.40;;;;;;5124964;28;20048;-55
2022/12/19 08:51:05;;;;;;;44.63;25.40;;;4.70;95.10;;;;;;5124797;28;20051;-54
2022/12/19 08:53:32;;;;;;;44.25;26.60;;;4.80;95.20;;;;;;5106569;28;20035;-55
2022/12/19 08:55:58;;;;;;;47.40;25.33;;;4.60;95.20;;;;;;5124868;28;20038;-55
2022/12/19 08:58:24;;;;;;;57.80;26.38;;;4.70;95.20;;;;;;5108513;28;20054;-55
2022/12/19 09:00:52;;;;;;;58.30;26.65;;;4.60;95.10;;;;;;5110518;28;20031;-55
2022/12/19 09:03:18;;;;;;;50.00;27.50;;;4.60;95.20;;;;;;5093684;28;20180;-55
2022/12/19 09:05:43;;;;;;;50.53;26.67;;;4.70;95.20;;;;;;5093505;28;20027;-55
2022/12/19 09:08:09;;;;;;;62.65;28.02;;;4.60;95.20;;;;;;5129054;28;20038;-55
2022/12/19 09:10:36;;;;;;;67.43;28.85;;;4.70;95.20;;;;;;5095565;28;20036;-55
2022/12/19 09:13:02;;;;;;;82.32;30.35;;;4.70;95.30;;;;;;5102999;28;20020;-55
2022/12/19 09:15:29;;;;;;;58.42;24.80;;;4.70;95.30;;;;;;5109027;28;20082;-55
2022/12/19 09:17:54;;;;;;;53.78;25.60;;;4.70;95.30;;;;;;5110002;28;20019;-55
2022/12/19 09:20:20;;;;;;;67.50;28.00;;;4.70;95.30;;;;;;5109729;28;20047;-55
2022/12/19 09:22:45;;;;;;;67.72;27.40;;;4.70;95.30;;;;;;5103956;28;20031;-55
2022/12/19 09:25:11;;;;;;;76.75;29.25;;;4.70;95.20;;;;;;5125408;28;20031;-55
2022/12/19 09:27:37;;;;;;;64.43;27.98;;;4.70;95.20;;;;;;5107543;28;20089;-55
2022/12/19 09:30:02;;;;;;;69.22;28.40;;;4.70;95.20;;;;;;5107570;28;20024;-55
2022/12/19 09:32:29;;;;;;;63.65;27.88;;;4.80;95.30;;;;;;5107933;28;20032;-55
2022/12/19 09:34:54;;;;;;;63.88;27.60;;;4.70;95.30;;;;;;5086332;28;20056;-55
2022/12/19 09:37:20;;;;;;;70.63;28.23;;;4.70;95.30;;;;;;5055891;28;20039;-55
2022/12/19 09:39:45;;;;;;;74.47;27.60;;;4.70;95.30;;;;;;5102952;28;20068;-55
2022/12/19 09:42:29;;;;;;;79.93;28.27;;;4.70;95.30;;;;;;5108808;28;20038;-54
2022/12/19 09:45:36;;;;;;;71.25;28.33;;;4.70;95.30;;;;;;5088698;28;20100;-55
2022/12/19 09:48:02;;;;;;;69.57;29.92;;;4.80;95.40;;;;;;5105661;28;20032;-55
2022/12/19 09:50:53;;;;;;;75.35;28.98;;;4.80;95.40;;;;;;5090658;28;20053;-55
2022/12/19 09:53:33;;;;;;;69.47;29.27;;;4.70;95.40;;;;;;5127844;28;20034;-55
2022/12/19 09:55:59;;;;;;;59.30;30.08;;;4.80;95.40;;;;;;5108868;28;20051;-55
2022/12/19 09:58:40;;;;;;;71.22;30.65;;;4.80;95.40;;;;;;5075647;28;20030;-55
2022/12/19 10:01:11;;;;;;;60.80;29.25;;;4.80;95.40;;;;;;5106704;28;20024;-55
2022/12/19 10:03:40;;;;;;;61.08;27.95;;;4.80;95.40;;;;;;5107224;28;20043;-55
2022/12/19 10:06:17;;;;;;;76.63;30.40;;;4.80;95.40;;;;;;5092280;28;20479;-55
2022/12/19 10:08:43;;;;;;;74.45;29.35;;;4.80;95.30;;;;;;5124359;28;20065;-55
2022/12/19 10:11:14;;;;;;;85.35;29.92;;;4.80;95.40;;;;;;5089297;28;20031;-55
2022/12/19 10:13:58;;;;;;;78.88;29.17;;;4.80;95.50;;;;;;5127478;28;20027;-55
2022/12/19 10:16:33;;;;;;;76.78;31.30;;;4.90;95.50;;;;;;5106966;28;20085;-54
2022/12/19 10:19:08;;;;;;;71.77;30.03;;;4.90;95.50;;;;;;5123974;28;20058;-55
2022/12/19 10:21:41;;;;;;;;;;;4.90;95.50;;;;;;5106875;28;20112;-57
2022/12/19 10:24:25;;;;;;;92.00;30.95;;;4.90;95.50;;;;;;5111874;27;19908;-55
2022/12/19 10:26:57;;;;;;;87.78;29.73;;;4.90;95.60;;;;;;5122642;28;20050;-55
2022/12/19 10:29:37;;;;;;;96.57;32.30;;;4.90;95.60;;;;;;5103929;28;20023;-55
2022/12/19 10:32:18;;;;;;;96.22;31.90;;;4.90;95.60;;;;;;5105450;28;20349;-55
2022/12/19 10:34:44;;;;;;;89.55;30.83;;;5.00;95.60;;;;;;5108133;27;20053;-59
2022/12/19 10:37:14;;;;;;;105.10;32.40;;;5.00;95.60;;;;;;5087540;28;20034;-59
2022/12/19 10:39:45;;;;;;;99.70;32.25;;;5.00;95.70;;;;;;5120957;28;20028;-59
2022/12/19 10:42:38;;;;;;;107.60;34.38;;;5.00;96.10;;;;;;5105602;28;20051;-59
2022/12/19 10:45:13;;;;;;;408.95;55.33;;;5.00;95.80;;;;;;5105825;27;20053;-59
2022/12/19 10:47:40;;;;;;;145.60;37.90;;;5.00;95.80;;;;;;5106820;28;20031;-59
2022/12/19 10:50:12;;;;;;;98.45;32.72;;;5.10;95.90;;;;;;5107911;28;20032;-59
2022/12/19 10:52:51;;;;;;;106.88;35.25;;;5.10;95.90;;;;;;5108910;28;20085;-58
2022/12/19 10:55:38;;;;;;;140.07;38.97;;;5.10;95.80;;;;;;5108276;27;20023;-58
2022/12/19 10:58:30;;;;;;;90.07;34.47;;;5.10;96.20;;;;;;5126136;27;20030;-59
2022/12/19 11:01:25;;;;;;;116.35;36.13;;;5.10;95.90;;;;;;5097110;28;20036;-59
2022/12/19 11:04:14;;;;;;;136.63;33.97;;;5.10;95.90;;;;;;5103591;28;20122;-59
2022/12/19 11:06:45;;;;;;;97.53;34.50;;;5.10;95.90;;;;;;5108313;28;20070;-59
2022/12/19 11:09:30;;;;;;;127.55;39.28;;;5.10;95.90;;;;;;5105672;28;20042;-59
2022/12/19 11:11:57;;;;;;;111.70;35.60;;;5.10;96.00;;;;;;5105348;28;20035;-59
2022/12/19 11:14:25;;;;;;;103.07;34.45;;;5.10;96.00;;;;;;5124333;28;20110;-59
2022/12/19 11:16:50;;;;;;;171.55;40.17;;;5.10;96.00;;;;;;5094888;28;20032;-59
2022/12/19 11:19:36;;;;;;;138.38;40.25;;;5.10;96.00;;;;;;5088617;28;20123;-59
2022/12/19 11:22:18;;;;;;;110.28;36.03;;;5.10;96.00;;;;;;5104471;28;20400;-59
2022/12/19 11:24:47;;;;;;;102.57;36.50;;;5.20;96.00;;;;;;5090178;28;20067;-59
2022/12/19 11:27:34;;;;;;;103.10;36.03;;;5.20;95.90;;;;;;5092934;28;20032;-59
2022/12/19 11:29:59;;;;;;;88.47;35.20;;;5.20;95.90;;;;;;5123731;27;20416;-59
2022/12/19 11:32:32;;;;;;;122.72;37.60;;;5.20;96.00;;;;;;5104221;28;20051;-59
2022/12/19 11:35:22;;;;;;;119.82;37.03;;;5.70;96.10;;;;;;5105653;28;20035;-59
2022/12/19 11:37:54;;;;;;;129.27;38.17;;;5.30;96.10;;;;;;5086194;28;20042;-59
2022/12/19 11:40:32;;;;;;;190.88;46.25;;;5.30;96.10;;;;;;5106347;28;20073;-59
2022/12/19 11:43:38;;;;;;;124.53;39.65;;;5.30;96.10;;;;;;5111279;28;20027;-59
2022/12/19 11:46:16;;;;;;;100.50;37.85;;;5.30;96.10;;;;;;5097803;28;20039;-60
2022/12/19 11:48:53;;;;;;;133.88;37.20;;;5.30;96.10;;;;;;5105452;28;20062;-60
2022/12/19 11:51:30;;;;;;;135.93;37.85;;;5.30;96.20;;;;;;5106191;28;20035;-59
2022/12/19 11:54:16;;;;;;;111.97;36.20;;;5.30;96.20;;;;;;5106754;28;20073;-60
2022/12/19 11:56:42;;;;;;;112.28;36.42;;;5.30;96.20;;;;;;5107579;28;20031;-60
2022/12/19 11:59:17;;;;;;;155.90;43.53;;;5.40;96.20;;;;;;5105424;28;20087;-60
2022/12/19 12:02:07;;;;;;;148.18;40.42;;;5.40;96.20;;;;;;5125917;28;20028;-58
2022/12/19 12:04:54;;;;;;;121.13;37.10;;;5.40;96.20;;;;;;5109681;28;20023;-59
2022/12/19 12:07:19;;;;;;;134.65;37.10;;;5.40;96.20;;;;;;5106874;28;20161;-59
2022/12/19 12:10:11;;;;;;;113.85;35.55;;;5.50;96.20;;;;;;5124246;28;20024;-59
2022/12/19 12:12:57;;;;;;;103.93;37.53;;;5.50;96.20;;;;;;5115361;28;20153;-60
2022/12/19 12:15:45;;;;;;;119.10;36.78;;;5.50;96.20;;;;;;5103090;28;20024;-59
2022/12/19 12:18:29;;;;;;;106.07;35.83;;;5.60;96.10;;;;;;5108856;28;20068;-60
2022/12/19 12:21:04;;;;;;;134.30;38.15;;;5.50;96.10;;;;;;5122925;28;20028;-60
2022/12/19 12:23:47;;;;;;;139.18;38.03;;;5.60;96.10;;;;;;5104905;28;20015;-59
2022/12/19 12:26:20;;;;;;;107.05;35.40;;;5.50;96.00;;;;;;5122324;28;20511;-60
2022/12/19 12:29:03;;;;;;;103.97;36.08;;;5.50;96.00;;;;;;5086859;28;20042;-60
2022/12/19 12:31:29;;;;;;;109.28;35.55;;;5.50;96.00;;;;;;5106401;28;20096;-60
2022/12/19 12:34:24;;;;;;;165.35;43.47;;;5.60;96.10;;;;;;5089037;28;20059;-59
2022/12/19 12:37:04;;;;;;;214.95;49.65;;;5.60;96.20;;;;;;5034890;28;20511;-60
2022/12/19 12:39:54;;;;;;;139.63;40.72;;;5.60;96.10;;;;;;5086404;28;20028;-60
2022/12/19 12:42:44;;;;;;;132.20;38.13;;;5.60;96.20;;;;;;5122963;28;20036;-60
2022/12/19 12:45:26;;;;;;;112.72;38.22;;;5.60;96.20;;;;;;5127184;28;20026;-60
2022/12/19 12:47:52;;;;;;;98.32;33.83;;;5.60;96.30;;;;;;5082707;28;20385;-60
2022/12/19 12:50:20;;;;;;;102.63;35.35;;;5.70;96.40;;;;;;5092844;28;20091;-59
2022/12/19 12:52:51;;;;;;;89.53;34.83;;;5.70;96.40;;;;;;5099280;28;20046;-60
2022/12/19 12:55:29;;;;;;;83.70;32.50;;;5.70;96.40;;;;;;5104786;28;20031;-60